This is the latest recevied weather packets stored in our database for station/object TAPIOLA. If no packets are shown the sender has not sent any weather packets the latest 1 day(s).
| Time | Temp. | Humidity | Pressure | Rain* | Wind** | Luminosity | Snow |
|---|---|---|---|---|---|---|---|
| 1836274169 | 15° C | 97% | 1009.3 hPa | 0 mm | 4.92 m/s, 202° | - | - |
| 1778048840 | 7.22° C | 53% | 1012.5 hPa | 0 mm | 3.58 m/s, 285° | - | - |
| 1778047640 | 6.67° C | 58% | 1012.3 hPa | 0 mm | 4.47 m/s, 290° | - | - |
| 1778046440 | 6.11° C | 60% | 1012.2 hPa | 0 mm | 4.47 m/s, 286° | - | - |
| 1778045240 | 5.56° C | 65% | 1011.9 hPa | 0 mm | 4.02 m/s, 285° | - | - |
| 1778044040 | 4.44° C | 68% | 1011.7 hPa | 0 mm | 4.02 m/s, 273° | - | - |
| 1778042840 | 4.44° C | 71% | 1011.5 hPa | 0 mm | 4.47 m/s, 282° | - | - |
| 1778041640 | 3.89° C | 73% | 1011.4 hPa | 0 mm | 3.58 m/s, 279° | - | - |
| 1778040439 | 3.33° C | 76% | 1011.3 hPa | 0 mm | 3.58 m/s, 279° | - | - |
| 1778039240 | 2.78° C | 78% | 1011.1 hPa | 0 mm | 3.58 m/s, 275° | - | - |
| 1778038039 | 2.22° C | 79% | 1010.9 hPa | 0 mm | 4.02 m/s, 269° | - | - |
| 1778036840 | 1.67° C | 80% | 1010.7 hPa | 0 mm | 3.13 m/s, 266° | - | - |
| 1778035639 | 1.11° C | 82% | 1010.5 hPa | 0 mm | 3.13 m/s, 266° | - | - |
| 1778034439 | 1.11° C | 82% | 1010.3 hPa | 0 mm | 3.13 m/s, 266° | - | - |
| 1778033239 | 1.11° C | 82% | 1010.1 hPa | 0 mm | 2.68 m/s, 271° | - | - |
| 1778032039 | 1.67° C | 79% | 1010 hPa | 0 mm | 4.02 m/s, 285° | - | - |
| 1778030839 | 1.67° C | 79% | 1009.9 hPa | 0 mm | 3.13 m/s, 277° | - | - |
| 1778029639 | 1.67° C | 79% | 1009.8 hPa | 0 mm | 3.58 m/s, 276° | - | - |
| 1778028439 | 1.67° C | 79% | 1009.5 hPa | 0 mm | 3.13 m/s, 273° | - | - |
| 1778027239 | 1.67° C | 79% | 1009.4 hPa | 0 mm | 3.58 m/s, 271° | - | - |
| 1778026039 | 2.22° C | 78% | 1009.4 hPa | 0 mm | 3.13 m/s, 268° | - | - |
| 1778024839 | 2.22° C | 77% | 1009.2 hPa | 0 mm | 3.13 m/s, 267° | - | - |
| 1778023639 | 2.78° C | 76% | 1009.1 hPa | 0 mm | 3.58 m/s, 263° | - | - |
| 1778022439 | 2.78° C | 74% | 1009 hPa | 0 mm | 3.58 m/s, 267° | - | - |
| 1778021239 | 3.33° C | 72% | 1008.8 hPa | 0 mm | 3.58 m/s, 270° | - | - |
* Rain latest hour (hover to see other rain measurements)
** Current wind speed in m/s (hover to see current wind gust speed)